Terminal Aerodrome Forecast
Issued by NWS

Home | Current Version | Previous Version | Graphics & Text | Print | Product List | Glossary On
Versions: 1 2 3 4 5 6 7 8 9 10 11 12 13 14
000
FTUS43 KFGF 191400 AAA
TAFBJI
TAF AMD
KBJI 191437Z 1915/2012 17015G23KT P6SM BKN100
     FM191800 22015KT P6SM SCT250
     FM200000 27007KT P6SM SKC=

USA.gov is the U.S. government's official web portal to all federal, state and local government web resources and services.